Portada
METAR-TAF:

METAR-TAF

Aeroports :

Tarauacá, Acre, Brasil

latitud: 08-10S, longitud: 070-46W, altitud: 190 m

Observació

L'informe es va fer fa 1 hora i 18 minuts, a les 06:00 UTC
Vent 1 kt amb direcció variable
Temperatura 23°C
Humitat 100%
Pressió 1011 hPa
Visibilitat 10 km o més
sense núvols per sota de 1500 mi sense presència de cumulonimbus.

METAR: SBTK 150600Z AUTO VRB01KT CAVOK 23/23 Q1011

Hora: 02:18 (07:18 UTC)


TAF: manca

Observacions i pronòstics meteorològics de més de 4000 aeroports (METAR i TAF).

Les estacions disponibles són els punts grocs i vermells al mapa.

Posi el ratolí al punt desitjat per veure el nom de l'estació.

Feu clic per veure les observacions i els pronòstics meteorològics.

Per canviar el mapa: feu clic els botons verds amb una creu de color negre per apropar; al botó verd amb un guió per allunyar la imatge; o en les fletxes verdes per a mapes adjacents.


METAR-TAF: